createdAt,value
2022-10-22T00:00:12.060Z,14.00
2022-10-22T00:02:39.316Z,14.00
2022-10-22T00:05:06.351Z,14.00
2022-10-22T00:07:33.126Z,14.00
2022-10-22T00:09:59.922Z,14.00
2022-10-22T00:12:27.080Z,14.00
2022-10-22T00:14:54.114Z,14.00
2022-10-22T00:17:20.899Z,14.00
2022-10-22T00:19:47.539Z,14.00
2022-10-22T00:22:14.370Z,14.00
2022-10-22T00:24:41.142Z,14.00
2022-10-22T00:27:10.644Z,14.00
2022-10-22T00:29:37.315Z,14.00
2022-10-22T00:32:04.682Z,14.00
2022-10-22T00:34:32.042Z,14.00
2022-10-22T00:36:58.694Z,14.00
2022-10-22T00:39:27.068Z,14.00
2022-10-22T00:41:56.127Z,14.00
2022-10-22T00:44:59.856Z,14.10
2022-10-22T00:47:30.745Z,14.10
2022-10-22T00:49:58.937Z,14.10
2022-10-22T00:52:25.895Z,14.10
2022-10-22T00:54:52.869Z,14.20
2022-10-22T00:57:20.235Z,14.20
2022-10-22T00:59:48.154Z,14.20
2022-10-22T01:02:16.023Z,14.30
2022-10-22T01:04:43.318Z,14.30
2022-10-22T01:07:18.417Z,14.30
2022-10-22T01:10:07.536Z,14.30
2022-10-22T01:12:51.306Z,14.30
2022-10-22T01:15:28.958Z,14.30
2022-10-22T01:18:01.130Z,14.30
2022-10-22T01:20:52.031Z,14.30
2022-10-22T01:23:35.915Z,14.30
2022-10-22T01:26:21.234Z,14.20
2022-10-22T01:29:18.444Z,14.20
2022-10-22T01:31:59.383Z,14.20
2022-10-22T01:34:28.488Z,14.20
2022-10-22T01:36:57.085Z,14.20
2022-10-22T01:39:25.452Z,14.10
2022-10-22T01:41:55.165Z,14.10
2022-10-22T01:44:30.301Z,14.10
2022-10-22T01:47:32.736Z,14.10
2022-10-22T01:50:18.498Z,14.00
2022-10-22T01:53:19.297Z,14.00
2022-10-22T01:56:03.456Z,14.00
2022-10-22T01:58:36.194Z,13.90
2022-10-22T02:01:25.315Z,13.90
2022-10-22T02:04:01.688Z,13.90
2022-10-22T02:06:31.191Z,13.90
2022-10-22T02:09:00.531Z,13.90
2022-10-22T02:11:27.820Z,13.90
2022-10-22T02:14:00.023Z,13.80
2022-10-22T02:16:37.319Z,13.80
2022-10-22T02:19:11.826Z,13.80
2022-10-22T02:21:39.031Z,13.80
2022-10-22T02:24:06.150Z,13.80
2022-10-22T02:26:39.719Z,13.80
2022-10-22T02:29:15.482Z,13.80
2022-10-22T02:31:44.500Z,13.80
2022-10-22T02:34:15.749Z,13.80
2022-10-22T02:36:46.709Z,13.80
2022-10-22T02:41:44.505Z,13.80
2022-10-22T02:44:11.492Z,13.80
2022-10-22T02:46:40.372Z,13.80
2022-10-22T02:49:07.097Z,13.80
2022-10-22T02:51:34.823Z,13.80
2022-10-22T02:54:02.149Z,13.80
2022-10-22T02:56:29.232Z,13.80
2022-10-22T02:58:56.266Z,13.80
2022-10-22T03:01:23.247Z,13.80
2022-10-22T03:03:50.089Z,13.80
2022-10-22T03:06:17.049Z,13.70
2022-10-22T03:08:43.879Z,13.70
2022-10-22T03:11:10.745Z,13.70
2022-10-22T03:13:37.787Z,13.70
2022-10-22T03:16:04.759Z,13.70
2022-10-22T03:18:34.232Z,13.70
2022-10-22T03:21:13.403Z,13.70
2022-10-22T03:23:42.510Z,13.60
2022-10-22T03:26:10.594Z,13.60
2022-10-22T03:28:38.470Z,13.60
2022-10-22T03:31:05.206Z,13.50
2022-10-22T03:33:32.072Z,13.60
2022-10-22T03:35:59.285Z,13.50
2022-10-22T03:38:26.486Z,13.60
2022-10-22T03:40:53.379Z,13.60
2022-10-22T03:43:20.230Z,13.50
2022-10-22T03:45:47.239Z,13.50
2022-10-22T03:48:14.570Z,13.50
2022-10-22T03:50:41.561Z,13.50
2022-10-22T03:53:10.497Z,13.50
2022-10-22T03:55:38.427Z,13.50
2022-10-22T03:58:05.785Z,13.50
2022-10-22T04:00:34.238Z,13.50
2022-10-22T04:03:01.166Z,13.40
2022-10-22T04:05:27.912Z,13.40
2022-10-22T04:07:54.559Z,13.50
2022-10-22T04:10:21.228Z,13.40
2022-10-22T04:12:48.608Z,13.40
2022-10-22T04:15:15.727Z,13.40
2022-10-22T04:17:42.991Z,13.30
2022-10-22T04:20:11.156Z,13.30
2022-10-22T04:22:37.952Z,13.30
2022-10-22T04:25:08.298Z,13.30
2022-10-22T04:27:35.776Z,13.30
2022-10-22T04:30:03.603Z,13.30
2022-10-22T04:32:30.252Z,13.30
2022-10-22T04:34:56.943Z,13.20
2022-10-22T04:37:23.790Z,13.20
2022-10-22T04:39:50.607Z,13.20
2022-10-22T04:42:17.321Z,13.20
2022-10-22T04:44:43.963Z,13.30
2022-10-22T04:47:10.659Z,13.20
2022-10-22T04:49:37.275Z,13.20
2022-10-22T04:52:04.390Z,13.20
2022-10-22T04:54:33.130Z,13.10
2022-10-22T04:57:00.342Z,13.20
2022-10-22T04:59:27.193Z,13.20
2022-10-22T05:01:53.946Z,13.20
2022-10-22T05:04:20.859Z,13.10
2022-10-22T05:06:47.903Z,13.10
2022-10-22T05:09:18.696Z,13.20
2022-10-22T05:11:48.860Z,13.10
2022-10-22T05:14:34.027Z,13.10
2022-10-22T05:17:00.850Z,13.10
2022-10-22T05:19:30.894Z,13.10
2022-10-22T05:22:00.248Z,13.10
2022-10-22T05:24:28.143Z,13.10
2022-10-22T05:26:57.080Z,13.00
2022-10-22T05:29:24.280Z,13.00
2022-10-22T05:31:50.989Z,13.00
2022-10-22T05:34:18.050Z,13.00
2022-10-22T05:36:45.096Z,13.00
2022-10-22T05:39:12.535Z,13.00
2022-10-22T05:41:39.455Z,12.90
2022-10-22T05:44:08.655Z,12.90
2022-10-22T05:46:36.202Z,12.90
2022-10-22T05:49:05.677Z,12.90
2022-10-22T05:51:34.715Z,12.90
2022-10-22T05:54:03.567Z,12.90
2022-10-22T05:56:31.983Z,12.90
2022-10-22T05:58:59.230Z,12.90
2022-10-22T06:01:33.390Z,12.90
2022-10-22T06:04:10.578Z,12.90
2022-10-22T06:06:45.064Z,12.90
2022-10-22T06:09:24.841Z,12.90
2022-10-22T06:11:52.216Z,12.90
2022-10-22T06:14:20.496Z,12.90
2022-10-22T06:16:47.749Z,13.00
2022-10-22T06:19:16.107Z,13.00
2022-10-22T06:21:45.682Z,13.00
2022-10-22T06:24:13.346Z,13.00
2022-10-22T06:26:41.006Z,13.00
2022-10-22T06:29:08.651Z,13.00
2022-10-22T06:31:38.846Z,13.00
2022-10-22T06:34:11.471Z,13.00
2022-10-22T06:36:38.835Z,13.00
2022-10-22T06:39:05.555Z,13.00
2022-10-22T06:41:33.561Z,13.00
2022-10-22T06:44:00.422Z,13.00
2022-10-22T06:46:28.012Z,13.00
2022-10-22T06:48:57.538Z,13.00
2022-10-22T06:51:25.275Z,13.00
2022-10-22T06:53:52.699Z,13.10
2022-10-22T06:56:21.619Z,13.00
2022-10-22T06:58:49.831Z,13.00
2022-10-22T07:01:18.587Z,13.00
2022-10-22T07:03:46.021Z,13.10
2022-10-22T07:06:14.835Z,13.00
2022-10-22T07:08:42.622Z,13.10
2022-10-22T07:11:29.882Z,13.10
2022-10-22T07:13:58.612Z,13.20
2022-10-22T07:16:29.611Z,13.20
2022-10-22T07:18:59.432Z,13.20
2022-10-22T07:21:26.196Z,13.30
2022-10-22T07:23:53.060Z,13.30
2022-10-22T07:26:24.944Z,13.40
2022-10-22T07:28:52.081Z,13.40
2022-10-22T07:31:19.252Z,13.50
2022-10-22T07:33:46.450Z,13.60
2022-10-22T07:36:17.764Z,13.60
2022-10-22T07:38:49.641Z,13.70
2022-10-22T07:41:17.068Z,13.70
2022-10-22T07:43:43.828Z,13.80
2022-10-22T07:46:10.854Z,13.80
2022-10-22T07:48:37.592Z,13.80
2022-10-22T07:51:05.546Z,13.80
2022-10-22T07:53:32.438Z,13.90
2022-10-22T07:55:59.128Z,13.90
2022-10-22T07:58:26.437Z,14.00
2022-10-22T08:00:56.566Z,14.00
2022-10-22T08:03:23.488Z,14.10
2022-10-22T08:05:52.025Z,14.10
2022-10-22T08:08:18.723Z,14.20
2022-10-22T08:10:47.549Z,14.30
2022-10-22T08:13:14.988Z,14.30
2022-10-22T08:18:10.318Z,14.40
2022-10-22T08:20:37.010Z,14.50
2022-10-22T08:23:03.642Z,14.50
2022-10-22T08:25:30.630Z,14.60
2022-10-22T08:27:57.347Z,14.60
2022-10-22T08:30:24.046Z,14.60
2022-10-22T08:32:53.999Z,14.70
2022-10-22T08:35:20.941Z,14.70
2022-10-22T08:37:47.571Z,14.70
2022-10-22T08:40:33.343Z,14.70
2022-10-22T08:43:18.073Z,14.80
2022-10-22T08:46:16.016Z,14.80
2022-10-22T08:48:55.560Z,14.80
2022-10-22T08:51:26.911Z,14.80
2022-10-22T08:54:18.451Z,14.80
2022-10-22T08:56:52.303Z,14.90
2022-10-22T08:59:48.688Z,14.90
2022-10-22T09:02:42.711Z,15.00
2022-10-22T09:05:20.784Z,15.00
2022-10-22T09:07:50.304Z,15.10
2022-10-22T09:10:21.464Z,15.00
2022-10-22T09:12:48.663Z,15.00
2022-10-22T09:15:17.664Z,15.00
2022-10-22T09:18:27.585Z,15.00
2022-10-22T09:20:58.773Z,15.00
2022-10-22T09:23:47.425Z,15.10
2022-10-22T09:26:15.939Z,15.20
2022-10-22T09:28:43.467Z,15.20
2022-10-22T09:31:12.867Z,15.30
2022-10-22T09:33:40.554Z,15.40
2022-10-22T09:36:08.060Z,15.50
2022-10-22T09:38:41.024Z,15.50
2022-10-22T09:41:09.455Z,15.70
2022-10-22T09:43:36.499Z,15.80
2022-10-22T09:46:06.057Z,16.00
2022-10-22T09:48:42.028Z,16.20
2022-10-22T09:51:21.490Z,16.40
2022-10-22T09:54:00.047Z,16.50
2022-10-22T09:56:32.417Z,16.60
2022-10-22T09:58:59.415Z,16.70
2022-10-22T10:01:28.801Z,16.70
2022-10-22T10:04:08.361Z,16.90
2022-10-22T10:06:38.972Z,17.20
2022-10-22T10:09:20.768Z,17.10
2022-10-22T10:12:16.235Z,17.30
2022-10-22T10:15:19.920Z,17.40
2022-10-22T10:18:01.095Z,17.30
2022-10-22T10:20:50.192Z,17.30
2022-10-22T10:24:10.933Z,17.20
2022-10-22T10:26:49.019Z,17.40
2022-10-22T10:29:54.431Z,17.60
2022-10-22T10:32:26.171Z,17.60
2022-10-22T10:35:11.251Z,17.50
2022-10-22T10:37:46.786Z,17.40
2022-10-22T10:40:28.486Z,17.40
2022-10-22T10:43:06.661Z,17.70
2022-10-22T10:45:55.583Z,17.80
2022-10-22T10:48:28.460Z,17.80
2022-10-22T10:51:07.247Z,17.90
2022-10-22T10:53:42.832Z,18.20
2022-10-22T10:56:39.190Z,18.30
2022-10-22T10:59:25.623Z,18.20
2022-10-22T11:02:02.077Z,18.30
2022-10-22T11:05:02.608Z,18.10
2022-10-22T11:07:36.956Z,18.10
2022-10-22T11:10:42.056Z,17.90
2022-10-22T11:13:26.879Z,18.00
2022-10-22T11:16:05.971Z,18.30
2022-10-22T11:18:39.368Z,18.60
2022-10-22T11:21:54.452Z,18.80
2022-10-22T11:24:43.300Z,18.80
2022-10-22T11:27:28.497Z,18.80
2022-10-22T11:30:02.900Z,18.70
2022-10-22T11:32:31.595Z,18.50
2022-10-22T11:35:02.077Z,18.50
2022-10-22T11:37:35.237Z,18.60
2022-10-22T11:40:23.528Z,18.70
2022-10-22T11:42:55.151Z,18.80
2022-10-22T11:45:24.816Z,18.90
2022-10-22T11:48:18.875Z,19.00
2022-10-22T11:51:02.766Z,19.00
2022-10-22T11:53:36.290Z,19.10
2022-10-22T11:56:13.002Z,19.30
2022-10-22T11:58:44.887Z,19.50
2022-10-22T12:01:11.540Z,19.50
2022-10-22T12:03:47.933Z,19.40
2022-10-22T12:06:19.577Z,19.20
2022-10-22T12:08:49.284Z,19.10
2022-10-22T12:11:18.981Z,19.00
2022-10-22T12:13:52.475Z,18.80
2022-10-22T12:16:32.291Z,18.60
2022-10-22T12:19:10.340Z,18.40
2022-10-22T12:21:39.871Z,18.40
2022-10-22T12:24:07.408Z,18.30
2022-10-22T12:26:35.032Z,18.30
2022-10-22T12:29:06.648Z,18.30
2022-10-22T12:31:38.363Z,18.30
2022-10-22T12:34:05.684Z,18.20
2022-10-22T12:36:36.639Z,18.20
2022-10-22T12:39:10.069Z,18.40
2022-10-22T12:41:38.939Z,18.60
2022-10-22T12:44:06.365Z,18.90
2022-10-22T12:46:35.449Z,19.00
2022-10-22T12:49:05.500Z,19.20
2022-10-22T12:54:08.847Z,19.30
2022-10-22T12:56:37.627Z,19.40
2022-10-22T12:59:18.055Z,19.40
2022-10-22T13:01:44.800Z,19.30
2022-10-22T13:04:26.842Z,19.30
2022-10-22T13:07:05.516Z,19.30
2022-10-22T13:09:58.064Z,19.40
2022-10-22T13:12:36.440Z,19.40
2022-10-22T13:15:41.839Z,19.50
2022-10-22T13:18:23.793Z,19.30
2022-10-22T13:21:02.968Z,19.00
2022-10-22T13:23:32.013Z,18.80
2022-10-22T13:26:16.734Z,18.60
2022-10-22T13:28:50.611Z,18.70
2022-10-22T13:31:26.819Z,18.70
2022-10-22T13:34:02.427Z,18.90
2022-10-22T13:36:32.532Z,18.90
2022-10-22T13:38:59.231Z,18.80
2022-10-22T13:41:28.565Z,18.80
2022-10-22T13:43:55.578Z,18.70
2022-10-22T13:46:23.649Z,18.70
2022-10-22T13:48:52.661Z,18.70
2022-10-22T13:51:21.905Z,18.70
2022-10-22T13:53:50.678Z,18.70
2022-10-22T13:56:19.276Z,18.60
2022-10-22T13:58:47.655Z,18.50
2022-10-22T14:01:24.760Z,18.50
2022-10-22T14:03:54.287Z,18.50
2022-10-22T14:06:22.439Z,18.40
2022-10-22T14:08:54.292Z,18.40
2022-10-22T14:11:23.295Z,18.40
2022-10-22T14:13:50.204Z,18.40
2022-10-22T14:16:20.544Z,18.30
2022-10-22T14:18:48.412Z,18.30
2022-10-22T14:21:17.176Z,18.20
2022-10-22T14:23:46.483Z,18.10
2022-10-22T14:26:24.821Z,18.10
2022-10-22T14:34:06.916Z,17.90
2022-10-22T14:36:33.531Z,17.90
2022-10-22T14:39:00.420Z,17.90
2022-10-22T14:41:29.520Z,17.90
2022-10-22T14:43:56.721Z,17.80
2022-10-22T14:46:23.375Z,17.80
2022-10-22T14:48:50.268Z,17.70
2022-10-22T14:51:19.645Z,17.70
2022-10-22T14:53:49.709Z,17.70
2022-10-22T14:56:21.156Z,17.70
2022-10-22T14:58:48.423Z,17.60
2022-10-22T15:01:15.242Z,17.60
2022-10-22T15:03:42.031Z,17.60
2022-10-22T15:06:08.783Z,17.60
2022-10-22T15:08:35.738Z,17.60
2022-10-22T15:11:10.443Z,17.70
2022-10-22T15:13:37.196Z,17.70
2022-10-22T15:16:09.045Z,17.70
2022-10-22T15:18:36.150Z,17.70
2022-10-22T15:21:08.158Z,17.70
2022-10-22T15:23:36.393Z,17.70
2022-10-22T15:26:03.035Z,17.60
2022-10-22T15:28:29.783Z,17.60
2022-10-22T15:31:00.880Z,17.60
2022-10-22T15:33:29.325Z,17.60
2022-10-22T15:35:56.805Z,17.60
2022-10-22T15:41:06.993Z,17.50
2022-10-22T15:43:34.719Z,17.50
2022-10-22T15:46:14.693Z,17.50
2022-10-22T15:48:41.577Z,17.40
2022-10-22T15:51:13.570Z,17.40
2022-10-22T15:53:41.088Z,17.30
2022-10-22T15:56:08.362Z,17.30
2022-10-22T15:58:35.306Z,17.20
2022-10-22T16:01:11.172Z,17.20
2022-10-22T16:03:38.012Z,17.10
2022-10-22T16:06:06.430Z,17.10
2022-10-22T16:08:33.404Z,17.00
2022-10-22T16:11:00.634Z,16.90
2022-10-22T16:13:27.885Z,16.80
2022-10-22T16:15:54.915Z,16.70
2022-10-22T16:18:23.555Z,16.60
2022-10-22T16:20:50.453Z,16.50
2022-10-22T16:23:18.821Z,16.40
2022-10-22T16:25:46.683Z,16.30
2022-10-22T16:28:14.270Z,16.20
2022-10-22T16:30:41.834Z,16.10
2022-10-22T16:33:10.512Z,16.00
2022-10-22T16:35:41.872Z,15.90
2022-10-22T16:38:10.599Z,15.80
2022-10-22T16:40:37.397Z,15.70
2022-10-22T16:43:04.388Z,15.60
2022-10-22T16:45:31.349Z,15.50
2022-10-22T16:47:58.199Z,15.50
2022-10-22T16:50:24.859Z,15.40
2022-10-22T16:52:51.788Z,15.40
2022-10-22T16:55:18.672Z,15.30
2022-10-22T16:57:53.464Z,15.20
2022-10-22T17:00:20.816Z,15.20
2022-10-22T17:02:54.209Z,15.10
2022-10-22T17:05:21.538Z,15.10
2022-10-22T17:07:48.665Z,15.10
2022-10-22T17:10:16.100Z,15.00
2022-10-22T17:12:43.063Z,15.00
2022-10-22T17:15:10.203Z,14.90
2022-10-22T17:17:36.950Z,14.90
2022-10-22T17:20:04.033Z,14.90
2022-10-22T17:22:31.296Z,14.80
2022-10-22T17:25:25.579Z,14.80
2022-10-22T17:27:55.787Z,14.70
2022-10-22T17:30:27.221Z,14.70
2022-10-22T17:32:55.048Z,14.70
2022-10-22T17:35:21.825Z,14.60
2022-10-22T17:37:48.802Z,14.60
2022-10-22T17:40:16.055Z,14.50
2022-10-22T17:42:43.145Z,14.40
2022-10-22T17:45:10.265Z,14.40
2022-10-22T17:47:37.412Z,14.40
2022-10-22T17:50:04.435Z,14.30
2022-10-22T17:52:31.314Z,14.30
2022-10-22T17:54:58.046Z,14.30
2022-10-22T17:57:24.795Z,14.30
2022-10-22T17:59:51.664Z,14.30
2022-10-22T18:02:18.725Z,14.20
2022-10-22T18:04:45.646Z,14.20
2022-10-22T18:07:13.585Z,14.20
2022-10-22T18:09:42.880Z,14.10
2022-10-22T18:12:11.805Z,14.10
2022-10-22T18:14:38.688Z,14.10
2022-10-22T18:17:05.675Z,14.10
2022-10-22T18:19:33.168Z,14.00
2022-10-22T18:22:00.760Z,14.00
2022-10-22T18:24:27.508Z,14.00
2022-10-22T18:26:54.237Z,14.00
2022-10-22T18:29:21.182Z,14.00
2022-10-22T18:31:48.826Z,14.00
2022-10-22T18:34:18.885Z,13.90
2022-10-22T18:36:48.394Z,13.90
2022-10-22T18:39:15.618Z,13.80
2022-10-22T18:41:43.368Z,13.80
2022-10-22T18:44:13.867Z,13.70
2022-10-22T18:46:40.907Z,13.70
2022-10-22T18:49:08.322Z,13.70
2022-10-22T18:51:36.306Z,13.60
2022-10-22T18:54:18.185Z,13.70
2022-10-22T18:56:49.174Z,13.70
2022-10-22T18:59:25.989Z,13.60
2022-10-22T19:01:54.353Z,13.70
2022-10-22T19:04:21.302Z,13.60
2022-10-22T19:06:48.177Z,13.60
2022-10-22T19:09:15.925Z,13.50
2022-10-22T19:11:46.334Z,13.50
2022-10-22T19:14:19.236Z,13.50
2022-10-22T19:16:46.072Z,13.50
2022-10-22T19:19:16.592Z,13.40
2022-10-22T19:21:45.483Z,13.40
2022-10-22T19:24:13.721Z,13.30
2022-10-22T19:26:40.952Z,13.40
2022-10-22T19:29:08.067Z,13.30
2022-10-22T19:31:34.771Z,13.30
2022-10-22T19:34:02.157Z,13.20
2022-10-22T19:36:30.932Z,13.20
2022-10-22T19:38:58.741Z,13.20
2022-10-22T19:41:27.685Z,13.20
2022-10-22T19:43:56.124Z,13.20
2022-10-22T19:46:24.127Z,13.10
2022-10-22T19:48:52.279Z,13.10
2022-10-22T19:51:21.884Z,13.10
2022-10-22T19:53:49.207Z,13.10
2022-10-22T19:56:20.675Z,13.10
2022-10-22T19:58:48.180Z,13.00
2022-10-22T20:01:17.886Z,13.00
2022-10-22T20:03:45.491Z,13.00
2022-10-22T20:06:14.847Z,12.90
2022-10-22T20:08:41.640Z,12.90
2022-10-22T20:11:11.391Z,12.90
2022-10-22T20:16:05.464Z,12.90
2022-10-22T20:18:35.822Z,12.90
2022-10-22T20:21:07.879Z,12.80
2022-10-22T20:23:34.928Z,12.80
2022-10-22T20:26:01.878Z,12.80
2022-10-22T20:28:28.759Z,12.80
2022-10-22T20:30:55.445Z,12.80
2022-10-22T20:33:22.368Z,12.80
2022-10-22T20:36:05.798Z,12.80
2022-10-22T20:38:32.950Z,12.80
2022-10-22T20:41:02.160Z,12.80
2022-10-22T20:43:29.305Z,12.70
2022-10-22T20:45:56.047Z,12.70
2022-10-22T20:48:29.451Z,12.70
2022-10-22T20:50:57.107Z,12.70
2022-10-22T20:53:24.066Z,12.60
2022-10-22T20:55:53.133Z,12.60
2022-10-22T20:58:23.354Z,12.60
2022-10-22T21:00:52.739Z,12.60
2022-10-22T21:03:20.114Z,12.60
2022-10-22T21:05:46.915Z,12.60
2022-10-22T21:08:17.303Z,12.50
2022-10-22T21:10:49.130Z,12.60
2022-10-22T21:13:16.812Z,12.50
2022-10-22T21:15:43.550Z,12.50
2022-10-22T21:18:10.354Z,12.50
2022-10-22T21:20:39.334Z,12.50
2022-10-22T21:23:06.412Z,12.40
2022-10-22T21:25:33.666Z,12.50
2022-10-22T21:28:00.619Z,12.50
2022-10-22T21:30:27.446Z,12.50
2022-10-22T21:32:55.913Z,12.50
2022-10-22T21:35:22.732Z,12.50
2022-10-22T21:37:49.809Z,12.50
2022-10-22T21:40:16.547Z,12.50
2022-10-22T21:42:45.580Z,12.50
2022-10-22T21:45:13.571Z,12.50
2022-10-22T21:47:41.250Z,12.50
2022-10-22T21:50:08.491Z,12.50
2022-10-22T21:52:35.130Z,12.50
2022-10-22T21:55:01.923Z,12.50
2022-10-22T21:57:28.567Z,12.50
2022-10-22T21:59:55.292Z,12.50
2022-10-22T22:04:50.403Z,12.50
2022-10-22T22:07:17.112Z,12.60
2022-10-22T22:09:43.788Z,12.60
2022-10-22T22:12:10.416Z,12.60
2022-10-22T22:14:38.005Z,12.60
2022-10-22T22:17:04.627Z,12.60
2022-10-22T22:19:31.275Z,12.60
2022-10-22T22:21:58.054Z,12.60
2022-10-22T22:24:24.867Z,12.60
2022-10-22T22:26:51.492Z,12.60
2022-10-22T22:29:18.216Z,12.60
2022-10-22T22:31:45.876Z,12.50
2022-10-22T22:34:15.025Z,12.50
2022-10-22T22:36:45.448Z,12.50
2022-10-22T22:39:16.743Z,12.50
2022-10-22T22:41:44.089Z,12.50
2022-10-22T22:44:11.199Z,12.50
2022-10-22T22:46:38.315Z,12.50
2022-10-22T22:49:05.599Z,12.50
2022-10-22T22:51:32.616Z,12.50
2022-10-22T22:54:00.321Z,12.40
2022-10-22T22:56:29.511Z,12.40
2022-10-22T22:58:57.216Z,12.40
2022-10-22T23:01:26.905Z,12.40
2022-10-22T23:03:59.675Z,12.40
2022-10-22T23:06:29.197Z,12.40
2022-10-22T23:08:56.863Z,12.30
2022-10-22T23:11:25.267Z,12.30
2022-10-22T23:13:54.717Z,12.30
2022-10-22T23:16:24.213Z,12.40
2022-10-22T23:18:52.333Z,12.30
2022-10-22T23:21:26.544Z,12.30
2022-10-22T23:23:58.819Z,12.30
2022-10-22T23:26:38.523Z,12.30
2022-10-22T23:29:27.290Z,12.30
2022-10-22T23:31:54.953Z,12.30
2022-10-22T23:34:24.172Z,12.30
2022-10-22T23:36:51.686Z,12.20
2022-10-22T23:39:21.428Z,12.20
2022-10-22T23:41:48.188Z,12.20
2022-10-22T23:44:14.909Z,12.10
2022-10-22T23:46:41.752Z,12.10
2022-10-22T23:49:09.546Z,12.10
2022-10-22T23:51:36.422Z,12.10
2022-10-22T23:54:06.715Z,12.10
2022-10-22T23:56:34.306Z,12.10
2022-10-22T23:59:01.010Z,12.00
